createdAt,value
2017-06-20T19:54:06.379Z,44.4
2017-06-20T19:55:08.025Z,45.4
2017-06-20T19:56:09.887Z,45.5
2017-06-20T19:57:11.524Z,45.0
2017-06-20T19:58:13.151Z,46.2
2017-06-20T19:59:14.818Z,46.6
2017-06-20T20:00:16.415Z,46.2
2017-06-20T20:01:18.056Z,45.9
2017-06-20T20:02:19.701Z,46.2
2017-06-20T20:03:21.452Z,46.5
2017-06-20T20:04:25.039Z,46.2
2017-06-20T20:05:26.930Z,46.4
2017-06-20T20:06:28.892Z,45.9
2017-06-20T20:07:30.609Z,45.9
2017-06-20T20:08:32.279Z,46.1
2017-06-20T20:09:33.949Z,46.0
2017-06-20T20:10:35.643Z,45.7
2017-06-20T20:11:37.303Z,45.7
2017-06-20T20:12:38.950Z,45.6
2017-06-20T20:13:40.686Z,45.9
2017-06-20T20:14:43.326Z,45.8
2017-06-20T20:15:45.180Z,46.1
2017-06-20T20:16:46.829Z,46.3
2017-06-20T20:17:48.515Z,46.5
2017-06-20T20:18:50.225Z,46.5
2017-06-20T20:19:51.836Z,46.4
2017-06-20T20:20:53.506Z,46.1
2017-06-20T20:21:55.656Z,45.7
2017-06-20T20:22:57.322Z,46.4
2017-06-20T20:23:59.011Z,45.8
2017-06-20T20:25:01.335Z,46.2
2017-06-20T20:26:03.023Z,46.5
2017-06-20T20:27:04.907Z,46.1
2017-06-20T20:28:06.566Z,46.2
2017-06-20T20:29:08.225Z,46.0
2017-06-20T20:30:09.880Z,46.5
2017-06-20T20:31:11.546Z,46.8
2017-06-20T20:32:13.214Z,47.7
2017-06-20T20:33:14.874Z,47.5
2017-06-20T20:34:16.558Z,47.1
2017-06-20T20:35:18.233Z,46.8
2017-06-20T20:36:19.906Z,46.4
2017-06-20T20:37:21.650Z,46.4
2017-06-20T20:38:23.275Z,46.3
2017-06-20T20:39:24.939Z,46.4
2017-06-20T20:40:26.575Z,47.1
2017-06-20T20:41:28.229Z,46.4
2017-06-20T20:42:29.891Z,46.0
2017-06-20T20:43:31.558Z,46.5
2017-06-20T20:44:33.475Z,46.9
2017-06-20T20:45:35.429Z,47.8
2017-06-20T20:46:37.088Z,47.5
2017-06-20T20:47:38.861Z,47.8
2017-06-20T20:48:40.584Z,47.7
2017-06-20T20:49:42.231Z,47.7
2017-06-20T20:50:43.930Z,47.3
2017-06-20T20:51:46.422Z,47.4
2017-06-20T20:52:48.079Z,47.2
2017-06-20T20:53:49.745Z,46.7
2017-06-20T20:54:51.410Z,47.0
2017-06-20T20:55:53.087Z,47.7
2017-06-20T20:56:54.770Z,47.7
2017-06-20T20:57:56.455Z,47.8
2017-06-20T20:58:58.127Z,47.2
2017-06-20T21:00:00.076Z,46.9
2017-06-20T21:01:01.730Z,47.7
2017-06-20T21:02:04.329Z,47.9
2017-06-20T21:03:06.008Z,48.3
2017-06-20T21:04:07.657Z,48.7
2017-06-20T21:05:09.310Z,48.5
2017-06-20T21:06:11.013Z,47.5
2017-06-20T21:07:12.680Z,47.6
2017-06-20T21:08:14.356Z,47.5
2017-06-20T21:09:16.029Z,47.3
2017-06-20T21:10:17.703Z,47.7
2017-06-20T21:11:19.350Z,46.9
2017-06-20T21:12:21.842Z,47.2
2017-06-20T21:13:23.513Z,46.4
2017-06-20T21:14:25.158Z,46.2
2017-06-20T21:15:27.276Z,47.1
2017-06-20T21:16:29.424Z,47.7
2017-06-20T21:17:31.079Z,46.9
2017-06-20T21:18:32.751Z,46.8
2017-06-20T21:19:34.423Z,47.2
2017-06-20T21:20:36.121Z,46.8
2017-06-20T21:21:38.466Z,47.1
2017-06-20T21:22:40.144Z,46.9
2017-06-20T21:23:41.823Z,47.3
2017-06-20T21:24:43.478Z,47.1
2017-06-20T21:25:45.147Z,47.2
2017-06-20T21:26:46.810Z,47.8
2017-06-20T21:27:48.491Z,48.8
2017-06-20T21:28:50.288Z,49.1
2017-06-20T21:29:51.927Z,48.9
2017-06-20T21:30:53.901Z,48.9
2017-06-20T21:31:55.565Z,48.8
2017-06-20T21:32:57.198Z,49.1
2017-06-20T21:33:58.854Z,48.8
2017-06-20T21:35:00.511Z,48.8
2017-06-20T21:36:02.166Z,49.0
2017-06-20T21:37:03.815Z,49.1
2017-06-20T21:38:05.466Z,49.2
2017-06-20T21:39:07.417Z,49.1
2017-06-20T21:40:10.208Z,48.8
2017-06-20T21:41:11.987Z,48.5
2017-06-20T21:42:13.656Z,49.0
2017-06-20T21:43:20.301Z,49.3
2017-06-20T21:44:21.962Z,49.3
2017-06-20T21:45:23.599Z,49.9
2017-06-20T21:46:25.549Z,49.4
2017-06-20T21:47:27.596Z,49.2
2017-06-20T21:48:29.262Z,49.0
2017-06-20T21:49:30.995Z,48.8
2017-06-20T21:50:33.067Z,48.3
2017-06-20T21:51:34.723Z,50.0
2017-06-20T21:52:36.378Z,50.5
2017-06-20T21:53:38.030Z,50.0
2017-06-20T21:54:39.805Z,50.2
2017-06-20T21:55:41.461Z,49.7
2017-06-20T21:56:43.112Z,50.0
2017-06-20T21:57:44.765Z,49.8
2017-06-20T21:58:46.496Z,49.9
2017-06-20T21:59:48.148Z,49.6
2017-06-20T22:00:49.824Z,50.5
2017-06-20T22:01:51.511Z,50.4
2017-06-20T22:02:53.160Z,51.0
2017-06-20T22:03:54.851Z,50.7
2017-06-20T22:04:56.558Z,50.2
2017-06-20T22:05:58.384Z,49.9
2017-06-20T22:07:00.099Z,49.3
2017-06-20T22:08:01.830Z,48.8
2017-06-20T22:09:03.488Z,49.7
2017-06-20T22:10:05.176Z,49.8
2017-06-20T22:11:06.907Z,49.8
2017-06-20T22:12:08.618Z,49.1
2017-06-20T22:13:10.278Z,49.4
2017-06-20T22:14:11.925Z,48.5
2017-06-20T22:15:13.584Z,48.6
2017-06-20T22:16:15.230Z,48.2
2017-06-20T22:17:18.059Z,48.1
2017-06-20T22:18:19.718Z,47.8
2017-06-20T22:19:21.370Z,47.7
2017-06-20T22:20:23.033Z,48.6
2017-06-20T22:21:24.677Z,48.4
2017-06-20T22:22:26.478Z,48.4
2017-06-20T22:23:28.196Z,48.9
2017-06-20T22:24:29.851Z,49.1
2017-06-20T22:25:31.541Z,49.9
2017-06-20T22:26:33.219Z,49.3
2017-06-20T22:27:34.889Z,49.0
2017-06-20T22:28:36.624Z,48.7
2017-06-20T22:29:38.337Z,47.7
2017-06-20T22:30:40.008Z,47.8
2017-06-20T22:31:41.705Z,48.2
2017-06-20T22:32:43.370Z,48.5
2017-06-20T22:33:45.011Z,48.5
2017-06-20T22:34:46.751Z,47.8
2017-06-20T22:35:48.397Z,47.7
2017-06-20T22:36:50.046Z,48.0
2017-06-20T22:37:51.693Z,47.8
2017-06-20T22:38:53.350Z,47.6
2017-06-20T22:39:55.010Z,47.6
2017-06-20T22:40:56.651Z,47.1
2017-06-20T22:41:58.320Z,47.6
2017-06-20T22:42:59.971Z,48.2
2017-06-20T22:44:01.676Z,48.2
2017-06-20T22:45:03.357Z,48.1
2017-06-20T22:46:05.040Z,48.1
2017-06-20T22:47:06.694Z,47.6
2017-06-20T22:48:08.328Z,47.6
2017-06-20T22:49:10.003Z,47.8
2017-06-20T22:50:11.687Z,47.4
2017-06-20T22:51:13.350Z,47.7
2017-06-20T22:52:15.014Z,48.4
2017-06-20T22:53:16.703Z,48.0
2017-06-20T22:54:18.888Z,48.7
2017-06-20T22:55:20.539Z,48.5
2017-06-20T22:56:22.230Z,48.5
2017-06-20T22:57:23.906Z,48.8
2017-06-20T22:58:25.566Z,49.4
2017-06-20T22:59:27.223Z,50.2
2017-06-20T23:00:28.888Z,50.6
2017-06-20T23:01:30.591Z,50.8
2017-06-20T23:02:32.231Z,51.6
2017-06-20T23:03:33.865Z,51.0
2017-06-20T23:04:36.404Z,50.9
2017-06-20T23:05:38.056Z,50.4
2017-06-20T23:06:39.743Z,50.5
2017-06-20T23:07:41.448Z,49.9
2017-06-20T23:08:43.107Z,51.0
2017-06-20T23:09:44.789Z,50.2
2017-06-20T23:10:46.485Z,50.5
2017-06-20T23:11:48.144Z,49.7
2017-06-20T23:12:49.788Z,49.7
2017-06-20T23:13:51.475Z,50.5
2017-06-20T23:14:53.111Z,49.7
2017-06-20T23:15:55.134Z,49.8
2017-06-20T23:16:56.760Z,49.5
2017-06-20T23:17:58.431Z,49.9
2017-06-20T23:19:00.052Z,49.7
2017-06-20T23:20:01.731Z,50.2
2017-06-20T23:21:03.408Z,50.6
2017-06-20T23:22:05.075Z,49.7
2017-06-20T23:23:06.729Z,49.9
2017-06-20T23:24:08.377Z,50.9
2017-06-20T23:25:10.034Z,51.7
2017-06-20T23:26:11.691Z,52.4
2017-06-20T23:27:13.359Z,52.0
2017-06-20T23:28:14.995Z,50.7
2017-06-20T23:29:16.685Z,50.1
2017-06-20T23:30:18.346Z,50.8
2017-06-20T23:31:20.006Z,51.3
2017-06-20T23:32:21.678Z,51.3
2017-06-20T23:33:23.885Z,51.1
2017-06-20T23:34:25.553Z,50.8
2017-06-20T23:35:27.195Z,50.9
2017-06-20T23:36:28.843Z,52.0
2017-06-20T23:37:30.494Z,51.5
2017-06-20T23:38:32.154Z,51.0
2017-06-20T23:39:33.812Z,51.6
2017-06-20T23:40:35.467Z,51.9
2017-06-20T23:41:37.131Z,51.0
2017-06-20T23:42:38.821Z,51.2
2017-06-20T23:43:41.451Z,50.4
2017-06-20T23:44:43.107Z,50.6
2017-06-20T23:45:44.750Z,50.7
2017-06-20T23:46:46.407Z,52.0
2017-06-20T23:47:48.738Z,52.1
2017-06-20T23:48:50.390Z,51.8
2017-06-20T23:49:52.048Z,51.7
2017-06-20T23:50:53.696Z,52.3
2017-06-20T23:51:55.353Z,51.3
2017-06-20T23:52:57.018Z,51.1
2017-06-20T23:53:59.451Z,50.7
2017-06-20T23:55:01.133Z,51.0
2017-06-20T23:56:02.811Z,50.8
2017-06-20T23:57:04.453Z,50.8
2017-06-20T23:58:06.144Z,50.4
2017-06-20T23:59:07.797Z,51.0
